createdAt,value
2018-07-16T00:00:18.114Z,18.78
2018-07-16T00:02:46.702Z,18.14
2018-07-16T00:05:14.995Z,17.95
2018-07-16T00:07:43.311Z,17.85
2018-07-16T00:10:12.355Z,17.75
2018-07-16T00:12:40.604Z,17.55
2018-07-16T00:15:08.965Z,17.75
2018-07-16T00:17:37.349Z,17.72
2018-07-16T00:20:06.036Z,17.71
2018-07-16T00:22:34.323Z,17.56
2018-07-16T00:25:02.688Z,17.31
2018-07-16T00:27:31.104Z,17.54
2018-07-16T00:29:59.375Z,17.47
2018-07-16T00:32:27.637Z,17.43
2018-07-16T00:34:55.956Z,17.51
2018-07-16T00:37:24.233Z,17.67
2018-07-16T00:39:52.561Z,17.67
2018-07-16T00:42:20.805Z,17.50
2018-07-16T00:44:49.160Z,17.14
2018-07-16T00:47:17.459Z,17.09
2018-07-16T00:49:46.186Z,17.16
2018-07-16T00:52:14.464Z,17.05
2018-07-16T00:54:42.805Z,16.88
2018-07-16T00:57:11.188Z,17.24
2018-07-16T00:59:39.529Z,17.22
2018-07-16T01:02:07.875Z,17.25
2018-07-16T01:04:36.205Z,17.14
2018-07-16T01:07:04.551Z,16.75
2018-07-16T01:09:32.873Z,17.18
2018-07-16T01:12:01.215Z,16.81
2018-07-16T01:14:29.857Z,16.92
2018-07-16T01:16:58.378Z,17.04
2018-07-16T01:19:26.827Z,16.74
2018-07-16T01:21:55.162Z,16.95
2018-07-16T01:24:23.519Z,17.04
2018-07-16T01:26:51.935Z,16.83
2018-07-16T01:29:20.251Z,16.87
2018-07-16T01:31:48.598Z,16.73
2018-07-16T01:34:16.909Z,16.84
2018-07-16T01:36:45.290Z,16.67
2018-07-16T01:39:13.839Z,16.38
2018-07-16T01:41:42.073Z,16.55
2018-07-16T01:44:10.396Z,16.30
2018-07-16T01:46:38.728Z,16.49
2018-07-16T01:49:07.072Z,16.36
2018-07-16T01:51:35.378Z,16.47
2018-07-16T01:54:03.843Z,16.44
2018-07-16T01:56:32.161Z,16.54
2018-07-16T01:59:00.389Z,16.35
2018-07-16T02:01:28.624Z,16.25
2018-07-16T02:03:56.830Z,16.17
2018-07-16T02:06:25.125Z,16.42
2018-07-16T02:08:53.392Z,16.37
2018-07-16T02:11:21.757Z,16.37
2018-07-16T02:13:49.980Z,16.41
2018-07-16T02:16:18.272Z,16.16
2018-07-16T02:18:46.634Z,16.15
2018-07-16T02:21:15.044Z,16.24
2018-07-16T02:23:43.261Z,16.13
2018-07-16T02:26:11.738Z,16.20
2018-07-16T02:28:39.979Z,16.19
2018-07-16T02:31:08.226Z,16.24
2018-07-16T02:33:36.960Z,16.24
2018-07-16T02:36:05.226Z,15.89
2018-07-16T02:38:33.486Z,15.86
2018-07-16T02:41:01.914Z,15.98
2018-07-16T02:43:30.259Z,16.22
2018-07-16T02:45:58.472Z,16.09
2018-07-16T02:48:26.784Z,15.96
2018-07-16T02:50:55.057Z,16.06
2018-07-16T02:53:23.335Z,15.87
2018-07-16T02:55:51.584Z,15.78
2018-07-16T02:58:19.909Z,15.66
2018-07-16T03:00:48.145Z,15.41
2018-07-16T03:03:16.467Z,15.54
2018-07-16T03:05:44.720Z,15.64
2018-07-16T03:08:13.011Z,15.56
2018-07-16T03:10:41.267Z,15.88
2018-07-16T03:13:09.624Z,15.80
2018-07-16T03:15:37.963Z,15.74
2018-07-16T03:18:06.312Z,15.43
2018-07-16T03:20:34.531Z,15.53
2018-07-16T03:23:02.804Z,15.56
2018-07-16T03:25:31.027Z,15.36
2018-07-16T03:27:59.397Z,15.43
2018-07-16T03:30:27.613Z,15.41
2018-07-16T03:32:55.852Z,15.56
2018-07-16T03:35:24.059Z,15.51
2018-07-16T03:37:52.288Z,15.67
2018-07-16T03:40:20.574Z,15.65
2018-07-16T03:42:48.840Z,15.50
2018-07-16T03:45:17.064Z,15.47
2018-07-16T03:47:45.375Z,15.71
2018-07-16T03:50:14.267Z,16.15
2018-07-16T03:52:42.570Z,16.33
2018-07-16T03:55:10.775Z,16.23
2018-07-16T03:57:39.051Z,16.70
2018-07-16T04:00:07.390Z,17.75
2018-07-16T04:02:35.681Z,17.61
2018-07-16T04:05:03.955Z,18.85
2018-07-16T04:07:32.237Z,19.78
2018-07-16T04:10:00.484Z,20.17
2018-07-16T04:12:28.790Z,20.99
2018-07-16T04:14:57.045Z,21.65
2018-07-16T04:17:25.377Z,21.79
2018-07-16T04:19:53.683Z,21.97
2018-07-16T04:22:22.005Z,21.69
2018-07-16T04:24:50.324Z,21.69
2018-07-16T04:27:18.603Z,19.39
2018-07-16T04:29:46.820Z,18.31
2018-07-16T04:32:15.091Z,17.80
2018-07-16T04:34:43.455Z,17.18
2018-07-16T04:37:11.820Z,16.84
2018-07-16T04:39:40.087Z,16.68
2018-07-16T04:42:08.395Z,16.65
2018-07-16T04:44:36.668Z,16.71
2018-07-16T04:47:05.123Z,16.78
2018-07-16T04:49:33.404Z,16.51
2018-07-16T04:52:02.001Z,16.53
2018-07-16T04:54:30.296Z,16.35
2018-07-16T04:56:58.531Z,16.50
2018-07-16T04:59:26.791Z,16.36
2018-07-16T05:01:55.014Z,16.46
2018-07-16T05:04:23.332Z,16.42
2018-07-16T05:06:51.617Z,16.73
2018-07-16T05:09:19.955Z,16.85
2018-07-16T05:11:48.216Z,16.82
2018-07-16T05:14:16.462Z,16.90
2018-07-16T05:16:44.703Z,16.99
2018-07-16T05:19:13.047Z,17.00
2018-07-16T05:21:41.303Z,17.18
2018-07-16T05:24:09.708Z,17.22
2018-07-16T05:26:37.902Z,17.30
2018-07-16T05:29:06.204Z,17.37
2018-07-16T05:31:34.459Z,17.35
2018-07-16T05:34:02.751Z,17.40
2018-07-16T05:36:31.049Z,17.35
2018-07-16T05:38:59.343Z,17.47
2018-07-16T05:41:27.639Z,17.60
2018-07-16T05:50:03.479Z,17.69
2018-07-16T05:52:31.757Z,17.78
2018-07-16T05:55:00.065Z,17.82
2018-07-16T05:57:28.427Z,17.83
2018-07-16T05:59:56.724Z,17.82
2018-07-16T06:02:25.105Z,17.99
2018-07-16T06:04:53.360Z,18.04
2018-07-16T06:07:21.721Z,18.17
2018-07-16T06:09:50.071Z,18.24
2018-07-16T06:12:18.391Z,18.22
2018-07-16T06:14:46.641Z,18.28
2018-07-16T06:17:14.935Z,18.43
2018-07-16T06:19:43.230Z,18.44
2018-07-16T06:22:11.513Z,18.50
2018-07-16T06:24:39.900Z,18.67
2018-07-16T06:27:08.193Z,18.61
2018-07-16T06:29:36.428Z,18.76
2018-07-16T06:32:04.701Z,18.80
2018-07-16T06:34:32.905Z,18.83
2018-07-16T06:37:01.199Z,18.79
2018-07-16T06:39:29.429Z,18.78
2018-07-16T06:41:57.712Z,18.80
2018-07-16T06:44:25.964Z,18.99
2018-07-16T06:46:54.875Z,19.01
2018-07-16T06:49:23.176Z,19.09
2018-07-16T06:51:52.622Z,19.19
2018-07-16T06:54:22.289Z,19.40
2018-07-16T07:01:30.847Z,19.29
2018-07-16T07:03:59.128Z,19.30
2018-07-16T07:06:27.432Z,19.37
2018-07-16T07:08:55.686Z,19.42
2018-07-16T07:11:23.956Z,19.37
2018-07-16T07:13:52.237Z,19.48
2018-07-16T07:16:20.596Z,19.50
2018-07-16T07:18:48.911Z,19.46
2018-07-16T07:21:17.273Z,19.65
2018-07-16T07:23:45.553Z,19.84
2018-07-16T07:26:13.942Z,19.59
2018-07-16T07:28:42.177Z,19.60
2018-07-16T07:31:10.475Z,19.86
2018-07-16T07:33:38.692Z,19.86
2018-07-16T07:36:07.047Z,20.06
2018-07-16T07:38:35.244Z,20.13
2018-07-16T07:41:03.530Z,19.95
2018-07-16T07:43:31.756Z,19.97
2018-07-16T07:45:59.992Z,20.30
2018-07-16T07:48:28.212Z,20.33
2018-07-16T07:50:56.480Z,20.02
2018-07-16T07:53:24.729Z,20.32
2018-07-16T07:55:53.001Z,20.59
2018-07-16T07:58:21.238Z,20.70
2018-07-16T08:00:49.533Z,20.57
2018-07-16T08:03:17.819Z,20.09
2018-07-16T08:05:51.549Z,20.10
2018-07-16T08:08:19.852Z,20.73
2018-07-16T08:10:48.154Z,20.74
2018-07-16T08:13:16.451Z,20.55
2018-07-16T08:15:44.702Z,20.64
2018-07-16T08:18:13.168Z,20.50
2018-07-16T08:20:41.513Z,20.84
2018-07-16T08:23:09.849Z,20.87
2018-07-16T08:25:38.133Z,20.69
2018-07-16T08:28:06.472Z,20.87
2018-07-16T08:30:34.684Z,20.94
2018-07-16T08:33:02.970Z,20.74
2018-07-16T08:35:31.247Z,20.90
2018-07-16T08:37:59.508Z,20.74
2018-07-16T08:40:27.896Z,20.84
2018-07-16T08:42:56.253Z,21.23
2018-07-16T08:45:24.518Z,21.01
2018-07-16T08:47:52.786Z,21.14
2018-07-16T08:50:21.079Z,21.14
2018-07-16T08:52:49.396Z,21.06
2018-07-16T08:55:17.615Z,21.10
2018-07-16T08:57:45.926Z,21.35
2018-07-16T09:00:14.179Z,21.17
2018-07-16T09:02:42.466Z,21.32
2018-07-16T09:05:10.700Z,22.09
2018-07-16T09:07:38.979Z,21.47
2018-07-16T09:10:07.196Z,21.96
2018-07-16T09:12:46.052Z,21.79
2018-07-16T09:15:45.567Z,21.90
2018-07-16T09:18:13.911Z,21.90
2018-07-16T09:20:42.155Z,22.29
2018-07-16T09:23:10.480Z,22.21
2018-07-16T09:25:38.807Z,22.63
2018-07-16T09:28:07.317Z,21.83
2018-07-16T09:30:35.594Z,22.43
2018-07-16T09:33:03.834Z,22.45
2018-07-16T09:35:32.223Z,22.17
2018-07-16T09:38:00.547Z,22.13
2018-07-16T09:40:28.949Z,22.15
2018-07-16T09:42:57.194Z,22.28
2018-07-16T09:45:25.523Z,22.12
2018-07-16T09:47:53.879Z,22.49
2018-07-16T09:50:22.153Z,22.94
2018-07-16T09:52:50.395Z,22.83
2018-07-16T09:55:18.664Z,22.61
2018-07-16T09:57:46.894Z,22.66
2018-07-16T10:00:19.355Z,22.82
2018-07-16T10:02:47.623Z,22.57
2018-07-16T10:05:15.910Z,22.93
2018-07-16T10:07:44.169Z,23.10
2018-07-16T10:10:12.629Z,23.12
2018-07-16T10:12:40.889Z,22.86
2018-07-16T10:15:09.259Z,23.35
2018-07-16T10:17:37.544Z,23.45
2018-07-16T10:20:05.903Z,22.93
2018-07-16T10:22:34.125Z,22.80
2018-07-16T10:25:02.422Z,22.80
2018-07-16T10:27:30.817Z,23.05
2018-07-16T10:29:59.275Z,23.57
2018-07-16T10:32:27.528Z,23.42
2018-07-16T10:34:56.122Z,23.39
2018-07-16T10:37:24.498Z,22.98
2018-07-16T10:39:52.797Z,23.67
2018-07-16T10:42:21.052Z,24.01
2018-07-16T10:44:49.390Z,23.59
2018-07-16T10:47:17.659Z,23.80
2018-07-16T10:49:46.045Z,23.79
2018-07-16T10:52:14.244Z,23.87
2018-07-16T10:54:42.856Z,23.55
2018-07-16T10:57:11.531Z,23.66
2018-07-16T10:59:39.824Z,23.86
2018-07-16T11:02:08.123Z,24.15
2018-07-16T11:04:36.387Z,24.16
2018-07-16T11:07:04.662Z,24.01
2018-07-16T11:09:32.907Z,24.13
2018-07-16T11:12:01.173Z,23.90
2018-07-16T11:14:29.588Z,24.11
2018-07-16T11:16:57.911Z,24.15
2018-07-16T11:19:26.160Z,24.15
2018-07-16T11:21:54.483Z,24.40
2018-07-16T11:24:22.738Z,24.24
2018-07-16T11:26:51.143Z,24.25
2018-07-16T11:29:19.870Z,24.12
2018-07-16T11:31:48.181Z,24.15
2018-07-16T11:34:16.432Z,24.46
2018-07-16T11:36:44.720Z,24.12
2018-07-16T11:39:12.974Z,23.72
2018-07-16T11:41:41.289Z,23.92
2018-07-16T11:44:09.642Z,24.21
2018-07-16T11:46:37.994Z,24.84
2018-07-16T11:49:06.384Z,24.55
2018-07-16T11:51:34.722Z,24.37
2018-07-16T11:54:02.968Z,24.64
2018-07-16T11:56:31.872Z,24.68
2018-07-16T11:59:00.439Z,24.66
2018-07-16T12:01:28.702Z,24.97
2018-07-16T12:03:57.069Z,24.55
2018-07-16T12:06:25.757Z,24.91
2018-07-16T12:08:55.517Z,24.65
2018-07-16T12:11:24.157Z,24.75
2018-07-16T12:13:52.839Z,24.50
2018-07-16T12:16:21.110Z,24.85
2018-07-16T12:18:49.456Z,24.99
2018-07-16T12:21:17.765Z,24.98
2018-07-16T12:23:46.010Z,25.46
2018-07-16T12:26:14.308Z,24.96
2018-07-16T12:28:42.585Z,25.74
2018-07-16T12:31:10.886Z,25.74
2018-07-16T12:33:39.112Z,25.76
2018-07-16T12:36:07.384Z,25.13
2018-07-16T12:38:35.660Z,25.06
2018-07-16T12:41:04.339Z,25.00
2018-07-16T12:43:32.682Z,25.45
2018-07-16T12:46:00.937Z,25.23
2018-07-16T12:48:29.227Z,25.45
2018-07-16T12:50:57.541Z,25.62
2018-07-16T12:53:25.947Z,25.43
2018-07-16T12:55:54.193Z,25.71
2018-07-16T12:58:22.479Z,25.72
2018-07-16T13:00:50.765Z,25.97
2018-07-16T13:03:19.042Z,26.10
2018-07-16T13:05:47.357Z,25.78
2018-07-16T13:08:15.828Z,26.16
2018-07-16T13:10:44.106Z,26.28
2018-07-16T13:13:12.380Z,26.17
2018-07-16T13:15:40.686Z,25.98
2018-07-16T13:18:09.116Z,25.88
2018-07-16T13:20:37.427Z,25.57
2018-07-16T13:23:05.788Z,25.42
2018-07-16T13:25:34.188Z,25.42
2018-07-16T13:28:02.605Z,26.08
2018-07-16T13:30:30.864Z,26.11
2018-07-16T13:32:59.296Z,26.19
2018-07-16T13:35:27.609Z,26.21
2018-07-16T13:37:55.943Z,26.46
2018-07-16T13:40:24.311Z,26.59
2018-07-16T13:42:52.916Z,26.61
2018-07-16T13:45:21.196Z,26.80
2018-07-16T13:47:49.502Z,26.47
2018-07-16T13:50:17.773Z,27.05
2018-07-16T13:52:46.116Z,26.72
2018-07-16T13:55:14.280Z,26.28
2018-07-16T13:57:42.584Z,25.92
2018-07-16T14:00:10.829Z,25.93
2018-07-16T14:02:39.145Z,25.98
2018-07-16T14:05:07.440Z,26.30
2018-07-16T14:07:35.746Z,26.00
2018-07-16T14:10:04.009Z,26.06
2018-07-16T14:12:32.346Z,26.17
2018-07-16T14:15:00.736Z,26.43
2018-07-16T14:17:29.067Z,26.70
2018-07-16T14:19:57.393Z,26.67
2018-07-16T14:22:25.841Z,27.03
2018-07-16T14:24:54.133Z,27.02
2018-07-16T14:27:22.370Z,27.32
2018-07-16T14:29:50.627Z,27.51
2018-07-16T14:32:18.923Z,27.42
2018-07-16T14:34:47.268Z,27.04
2018-07-16T14:37:15.667Z,26.68
2018-07-16T14:39:44.069Z,26.49
2018-07-16T14:42:12.618Z,26.29
2018-07-16T14:44:41.122Z,26.23
2018-07-16T14:47:09.423Z,26.09
2018-07-16T14:49:37.714Z,26.29
2018-07-16T14:52:06.204Z,26.64
2018-07-16T14:54:34.496Z,26.80
2018-07-16T14:57:02.856Z,26.74
2018-07-16T14:59:31.184Z,26.53
2018-07-16T15:01:59.478Z,26.40
2018-07-16T15:04:27.976Z,26.30
2018-07-16T15:06:56.281Z,26.80
2018-07-16T15:09:24.521Z,27.02
2018-07-16T15:11:52.800Z,27.08
2018-07-16T15:14:21.297Z,27.22
2018-07-16T15:16:49.612Z,27.37
2018-07-16T15:19:17.912Z,27.58
2018-07-16T15:21:46.337Z,27.62
2018-07-16T15:24:14.554Z,27.16
2018-07-16T15:26:42.881Z,27.22
2018-07-16T15:29:11.240Z,27.27
2018-07-16T15:31:39.473Z,27.11
2018-07-16T15:34:07.863Z,26.86
2018-07-16T15:36:36.144Z,26.61
2018-07-16T15:39:04.828Z,26.52
2018-07-16T15:41:33.227Z,26.46
2018-07-16T15:44:01.513Z,26.44
2018-07-16T15:46:29.812Z,26.33
2018-07-16T15:48:58.117Z,26.36
2018-07-16T15:51:26.549Z,26.35
2018-07-16T15:53:54.788Z,26.26
2018-07-16T15:56:23.051Z,26.27
2018-07-16T15:58:51.348Z,26.29
2018-07-16T16:01:19.659Z,26.41
2018-07-16T16:03:47.913Z,26.61
2018-07-16T16:06:16.200Z,26.81
2018-07-16T16:08:44.455Z,26.78
2018-07-16T16:11:12.751Z,27.01
2018-07-16T16:13:41.070Z,27.15
2018-07-16T16:16:09.366Z,27.27
2018-07-16T16:18:37.777Z,27.37
2018-07-16T16:21:06.213Z,27.53
2018-07-16T16:23:34.538Z,27.55
2018-07-16T16:26:02.927Z,27.52
2018-07-16T16:28:31.177Z,27.63
2018-07-16T16:30:59.437Z,27.65
2018-07-16T16:33:27.803Z,27.56
2018-07-16T16:35:56.083Z,27.55
2018-07-16T16:38:24.379Z,27.66
2018-07-16T16:40:52.672Z,27.51
2018-07-16T16:43:21.007Z,27.55
2018-07-16T16:45:49.411Z,27.71
2018-07-16T16:48:17.844Z,27.65
2018-07-16T16:50:46.196Z,27.68
2018-07-16T16:53:14.688Z,27.72
2018-07-16T16:55:42.982Z,27.58
2018-07-16T16:58:11.298Z,27.22
2018-07-16T17:00:39.704Z,27.22
2018-07-16T17:03:07.998Z,27.31
2018-07-16T17:05:36.409Z,27.27
2018-07-16T17:08:04.799Z,27.18
2018-07-16T17:10:33.205Z,27.37
2018-07-16T17:13:01.417Z,27.37
2018-07-16T17:15:29.850Z,27.37
2018-07-16T17:17:58.164Z,27.40
2018-07-16T17:20:26.439Z,27.38
2018-07-16T17:22:54.692Z,27.44
2018-07-16T17:25:23.302Z,27.56
2018-07-16T17:27:51.561Z,27.61
2018-07-16T17:30:19.873Z,27.39
2018-07-16T17:32:48.135Z,27.42
2018-07-16T17:35:16.521Z,27.32
2018-07-16T17:37:44.886Z,27.36
2018-07-16T17:40:13.173Z,27.50
2018-07-16T17:42:41.384Z,27.35
2018-07-16T17:45:09.652Z,27.53
2018-07-16T17:47:37.939Z,27.44
2018-07-16T17:50:06.945Z,27.35
2018-07-16T17:52:35.891Z,27.29
2018-07-16T17:55:04.838Z,27.28
2018-07-16T17:57:33.072Z,27.22
2018-07-16T18:00:01.441Z,27.06
2018-07-16T18:02:29.857Z,27.24
2018-07-16T18:04:58.136Z,27.10
2018-07-16T18:07:26.621Z,27.10
2018-07-16T18:09:55.012Z,27.16
2018-07-16T18:12:23.671Z,27.14
2018-07-16T18:14:52.224Z,27.11
2018-07-16T18:17:20.542Z,27.00
2018-07-16T18:19:48.916Z,26.96
2018-07-16T18:22:17.175Z,26.76
2018-07-16T18:24:45.445Z,26.84
2018-07-16T18:27:13.841Z,26.68
2018-07-16T18:29:42.173Z,26.71
2018-07-16T18:32:10.489Z,26.68
2018-07-16T18:34:38.932Z,26.63
2018-07-16T18:37:07.252Z,26.59
2018-07-16T18:39:35.565Z,26.55
2018-07-16T18:42:03.965Z,26.59
2018-07-16T18:44:32.394Z,26.47
2018-07-16T18:47:00.715Z,26.29
2018-07-16T18:49:29.176Z,26.37
2018-07-16T18:51:57.375Z,26.38
2018-07-16T18:54:25.649Z,26.03
2018-07-16T18:56:53.904Z,26.20
2018-07-16T18:59:22.390Z,26.24
2018-07-16T19:01:50.722Z,26.17
2018-07-16T19:04:19.028Z,26.12
2018-07-16T19:06:47.518Z,26.09
2018-07-16T19:09:15.780Z,26.00
2018-07-16T19:11:44.202Z,26.02
2018-07-16T19:14:12.594Z,26.06
2018-07-16T19:16:40.872Z,25.88
2018-07-16T19:19:09.436Z,25.83
2018-07-16T19:21:37.740Z,25.83
2018-07-16T19:24:06.029Z,25.81
2018-07-16T19:26:34.355Z,25.86
2018-07-16T19:29:02.661Z,25.83
2018-07-16T19:31:31.006Z,25.64
2018-07-16T19:33:59.279Z,25.73
2018-07-16T19:36:27.689Z,25.68
2018-07-16T19:38:56.149Z,25.70
2018-07-16T19:41:24.310Z,25.61
2018-07-16T19:43:52.598Z,25.65
2018-07-16T19:46:20.923Z,25.41
2018-07-16T19:48:49.264Z,25.46
2018-07-16T19:51:17.606Z,25.46
2018-07-16T19:53:45.894Z,25.44
2018-07-16T19:56:14.381Z,25.42
2018-07-16T19:58:42.655Z,25.41
2018-07-16T20:01:10.919Z,25.26
2018-07-16T20:03:39.236Z,25.20
2018-07-16T20:06:07.535Z,25.29
2018-07-16T20:08:36.023Z,25.17
2018-07-16T20:11:04.253Z,24.99
2018-07-16T20:13:32.522Z,25.07
2018-07-16T20:16:00.981Z,25.09
2018-07-16T20:18:29.237Z,24.95
2018-07-16T20:20:58.785Z,24.99
2018-07-16T20:23:27.082Z,24.92
2018-07-16T20:25:57.626Z,24.88
2018-07-16T20:28:26.164Z,24.84
2018-07-16T20:30:54.484Z,24.89
2018-07-16T20:33:22.934Z,24.72
2018-07-16T20:35:51.268Z,24.63
2018-07-16T20:38:19.554Z,24.66
2018-07-16T20:40:48.036Z,24.51
2018-07-16T20:43:16.301Z,24.46
2018-07-16T20:45:44.524Z,24.41
2018-07-16T20:48:12.724Z,24.30
2018-07-16T20:50:41.015Z,24.26
2018-07-16T20:53:09.315Z,24.44
2018-07-16T20:55:37.596Z,24.45
2018-07-16T20:58:06.701Z,24.43
2018-07-16T21:00:34.993Z,24.40
2018-07-16T21:03:03.214Z,24.20
2018-07-16T21:05:31.526Z,24.24
2018-07-16T21:07:59.828Z,24.27
2018-07-16T21:10:28.204Z,24.03
2018-07-16T21:12:57.272Z,24.04
2018-07-16T21:15:25.762Z,24.07
2018-07-16T21:17:54.089Z,24.07
2018-07-16T21:20:22.524Z,23.87
2018-07-16T21:22:50.865Z,23.74
2018-07-16T21:25:19.254Z,23.70
2018-07-16T21:27:47.554Z,23.83
2018-07-16T21:30:15.863Z,23.50
2018-07-16T21:32:44.215Z,23.24
2018-07-16T21:35:12.561Z,23.34
2018-07-16T21:37:40.983Z,23.09
2018-07-16T21:40:09.308Z,23.11
2018-07-16T21:42:37.853Z,23.25
2018-07-16T21:45:06.213Z,23.09
2018-07-16T21:47:34.563Z,22.82
2018-07-16T21:50:02.827Z,22.96
2018-07-16T21:52:31.117Z,22.80
2018-07-16T21:54:59.413Z,22.70
2018-07-16T21:57:27.664Z,22.83
2018-07-16T21:59:55.958Z,22.66
2018-07-16T22:02:24.237Z,22.90
2018-07-16T22:04:52.715Z,23.02
2018-07-16T22:07:21.420Z,23.04
2018-07-16T22:09:50.532Z,22.77
2018-07-16T22:12:18.780Z,22.88
2018-07-16T22:14:47.267Z,22.96
2018-07-16T22:17:15.539Z,22.87
2018-07-16T22:19:43.767Z,22.86
2018-07-16T22:22:12.002Z,22.64
2018-07-16T22:24:44.135Z,22.30
2018-07-16T22:27:12.577Z,22.17
2018-07-16T22:29:41.190Z,22.10
2018-07-16T22:32:09.473Z,21.92
2018-07-16T22:34:39.381Z,22.10
2018-07-16T22:37:08.593Z,22.13
2018-07-16T22:39:36.861Z,22.16
2018-07-16T22:42:05.110Z,21.78
2018-07-16T22:44:37.397Z,21.65
2018-07-16T22:47:08.309Z,21.61
2018-07-16T22:49:37.453Z,21.41
2018-07-16T22:52:06.443Z,21.65
2018-07-16T22:54:35.054Z,21.65
2018-07-16T22:57:04.518Z,21.99
2018-07-16T22:59:33.860Z,21.54
2018-07-16T23:02:02.821Z,21.42
2018-07-16T23:04:33.329Z,21.42
2018-07-16T23:07:03.424Z,21.35
2018-07-16T23:09:33.171Z,21.34
2018-07-16T23:12:02.645Z,21.54
2018-07-16T23:14:31.677Z,21.56
2018-07-16T23:17:00.702Z,21.62
2018-07-16T23:19:29.756Z,21.87
2018-07-16T23:21:58.819Z,21.86
2018-07-16T23:24:27.701Z,21.80
2018-07-16T23:26:56.433Z,21.59
2018-07-16T23:29:25.315Z,21.54
2018-07-16T23:31:55.063Z,21.41
2018-07-16T23:34:26.971Z,21.49
2018-07-16T23:36:57.055Z,21.52
2018-07-16T23:39:25.999Z,21.48
2018-07-16T23:41:56.309Z,21.55
2018-07-16T23:44:25.467Z,21.71
2018-07-16T23:46:53.734Z,21.60
2018-07-16T23:49:21.946Z,21.45
2018-07-16T23:51:50.162Z,21.37
2018-07-16T23:54:18.406Z,20.91
2018-07-16T23:56:46.722Z,20.87
2018-07-16T23:59:14.937Z,20.89
